createdAt,value
2022-10-13T00:01:12.957Z,98002.00
2022-10-13T00:03:42.242Z,98004.00
2022-10-13T00:06:11.089Z,97983.00
2022-10-13T00:08:39.409Z,97997.00
2022-10-13T00:11:13.218Z,98009.00
2022-10-13T00:13:40.982Z,97989.00
2022-10-13T00:16:10.401Z,97996.00
2022-10-13T00:18:37.721Z,97991.00
2022-10-13T00:21:15.127Z,97998.00
2022-10-13T00:23:42.261Z,97998.00
2022-10-13T00:26:13.391Z,98001.00
2022-10-13T00:28:40.384Z,98000.00
2022-10-13T00:31:29.026Z,97990.00
2022-10-13T00:33:58.023Z,97986.00
2022-10-13T00:36:25.134Z,98001.00
2022-10-13T00:38:53.199Z,98003.00
2022-10-13T00:41:21.568Z,98004.00
2022-10-13T00:44:00.262Z,98009.00
2022-10-13T00:46:34.785Z,98010.00
2022-10-13T00:49:13.664Z,98006.00
2022-10-13T00:51:50.122Z,97991.00
2022-10-13T00:54:23.825Z,97999.00
2022-10-13T00:56:53.325Z,97989.00
2022-10-13T00:59:27.676Z,97998.00
2022-10-13T01:01:57.723Z,98005.00
2022-10-13T01:04:33.370Z,97987.00
2022-10-13T01:07:01.797Z,97985.00
2022-10-13T01:09:35.732Z,97984.00
2022-10-13T01:12:49.083Z,97986.00
2022-10-13T01:15:39.779Z,97979.00
2022-10-13T01:18:48.190Z,97980.00
2022-10-13T01:21:28.590Z,97986.00
2022-10-13T01:24:21.547Z,97983.00
2022-10-13T01:27:08.366Z,97979.00
2022-10-13T01:30:19.826Z,97968.00
2022-10-13T01:33:18.421Z,97972.00
2022-10-13T01:36:09.523Z,97965.00
2022-10-13T01:39:15.091Z,97950.00
2022-10-13T01:41:49.825Z,97953.00
2022-10-13T01:44:38.442Z,97964.00
2022-10-13T01:47:08.848Z,97934.00
2022-10-13T01:49:37.628Z,97943.00
2022-10-13T01:52:15.127Z,97942.00
2022-10-13T01:54:42.259Z,97936.00
2022-10-13T01:57:42.700Z,97931.00
2022-10-13T02:00:20.057Z,97930.00
2022-10-13T02:02:56.669Z,97930.00
2022-10-13T02:05:52.118Z,97935.00
2022-10-13T02:08:46.006Z,97921.00
2022-10-13T02:11:22.815Z,97922.00
2022-10-13T02:14:09.529Z,97928.00
2022-10-13T02:16:43.127Z,97900.00
2022-10-13T02:19:15.359Z,97905.00
2022-10-13T02:21:44.545Z,97917.00
2022-10-13T02:24:12.595Z,97904.00
2022-10-13T02:26:41.533Z,97908.00
2022-10-13T02:29:14.579Z,97933.00
2022-10-13T02:31:44.047Z,97905.00
2022-10-13T02:34:12.411Z,97926.00
2022-10-13T02:36:40.077Z,97916.00
2022-10-13T02:39:11.749Z,97907.00
2022-10-13T02:41:39.365Z,97911.00
2022-10-13T02:44:07.230Z,97908.00
2022-10-13T02:46:35.970Z,97900.00
2022-10-13T02:49:02.906Z,97911.00
2022-10-13T02:51:30.480Z,97909.00
2022-10-13T02:53:57.318Z,97904.00
2022-10-13T02:56:24.256Z,97891.00
2022-10-13T02:58:51.733Z,97916.00
2022-10-13T03:01:18.658Z,97916.00
2022-10-13T03:03:46.441Z,97916.00
2022-10-13T03:06:13.329Z,97909.00
2022-10-13T03:08:40.234Z,97902.00
2022-10-13T03:11:07.258Z,97917.00
2022-10-13T03:13:34.118Z,97914.00
2022-10-13T03:16:07.442Z,97924.00
2022-10-13T03:18:35.023Z,97931.00
2022-10-13T03:21:06.507Z,97918.00
2022-10-13T03:23:34.235Z,97925.00
2022-10-13T03:26:01.453Z,97916.00
2022-10-13T03:28:28.793Z,97929.00
2022-10-13T03:31:08.785Z,97925.00
2022-10-13T03:33:35.714Z,97924.00
2022-10-13T03:36:05.496Z,97936.00
2022-10-13T03:38:34.702Z,97909.00
2022-10-13T03:41:10.998Z,97920.00
2022-10-13T03:43:38.951Z,97918.00
2022-10-13T03:46:08.273Z,97915.00
2022-10-13T03:48:36.317Z,97918.00
2022-10-13T03:51:23.206Z,97908.00
2022-10-13T03:53:52.111Z,97905.00
2022-10-13T03:56:26.911Z,97917.00
2022-10-13T03:58:57.083Z,97894.00
2022-10-13T04:01:27.901Z,97901.00
2022-10-13T04:03:56.576Z,97910.00
2022-10-13T04:06:26.108Z,97897.00
2022-10-13T04:08:53.911Z,97900.00
2022-10-13T04:11:22.972Z,97908.00
2022-10-13T04:13:57.507Z,97899.00
2022-10-13T04:16:28.612Z,97898.00
2022-10-13T04:19:06.456Z,97897.00
2022-10-13T04:21:35.114Z,97874.00
2022-10-13T04:24:04.219Z,97881.00
2022-10-13T04:26:35.735Z,97883.00
2022-10-13T04:29:11.276Z,97867.00
2022-10-13T04:31:40.556Z,97870.00
2022-10-13T04:34:07.774Z,97866.00
2022-10-13T04:36:34.877Z,97871.00
2022-10-13T04:39:01.719Z,97863.00
2022-10-13T04:41:28.608Z,97869.00
2022-10-13T04:43:55.559Z,97862.00
2022-10-13T04:46:26.299Z,97861.00
2022-10-13T04:48:55.502Z,97858.00
2022-10-13T04:51:26.551Z,97855.00
2022-10-13T04:53:58.623Z,97871.00
2022-10-13T04:56:27.644Z,97866.00
2022-10-13T04:58:54.645Z,97858.00
2022-10-13T05:01:24.767Z,97856.00
2022-10-13T05:03:59.612Z,97850.00
2022-10-13T05:06:30.732Z,97854.00
2022-10-13T05:08:58.205Z,97862.00
2022-10-13T05:11:26.871Z,97859.00
2022-10-13T05:13:55.308Z,97859.00
2022-10-13T05:16:23.975Z,97845.00
2022-10-13T05:18:52.896Z,97843.00
2022-10-13T05:21:24.063Z,97847.00
2022-10-13T05:23:55.428Z,97858.00
2022-10-13T05:26:28.703Z,97838.00
2022-10-13T05:29:00.689Z,97848.00
2022-10-13T05:31:34.165Z,97844.00
2022-10-13T05:34:01.568Z,97835.00
2022-10-13T05:36:34.579Z,97828.00
2022-10-13T05:39:06.184Z,97844.00
2022-10-13T05:41:33.565Z,97847.00
2022-10-13T05:44:08.525Z,97849.00
2022-10-13T05:46:40.050Z,97858.00
2022-10-13T05:49:07.069Z,97846.00
2022-10-13T05:51:41.279Z,97841.00
2022-10-13T05:54:21.461Z,97838.00
2022-10-13T05:56:56.871Z,97827.00
2022-10-13T05:59:28.833Z,97852.00
2022-10-13T06:01:56.417Z,97853.00
2022-10-13T06:04:49.014Z,97854.00
2022-10-13T06:07:16.357Z,97842.00
2022-10-13T06:09:44.032Z,97827.00
2022-10-13T06:12:10.973Z,97841.00
2022-10-13T06:14:38.071Z,97833.00
2022-10-13T06:17:07.578Z,97820.00
2022-10-13T06:19:34.447Z,97822.00
2022-10-13T06:22:08.609Z,97816.00
2022-10-13T06:24:35.552Z,97826.00
2022-10-13T06:27:04.646Z,97825.00
2022-10-13T06:29:33.598Z,97803.00
2022-10-13T06:32:00.618Z,97809.00
2022-10-13T06:34:27.585Z,97814.00
2022-10-13T06:36:54.436Z,97804.00
2022-10-13T06:39:21.353Z,97800.00
2022-10-13T06:41:49.978Z,97810.00
2022-10-13T06:44:16.896Z,97824.00
2022-10-13T06:46:43.725Z,97835.00
2022-10-13T06:49:10.572Z,97834.00
2022-10-13T06:51:37.517Z,97829.00
2022-10-13T06:54:04.487Z,97831.00
2022-10-13T06:56:33.912Z,97846.00
2022-10-13T06:59:05.539Z,97828.00
2022-10-13T07:01:40.626Z,97808.00
2022-10-13T07:04:12.684Z,97812.00
2022-10-13T07:06:39.728Z,97819.00
2022-10-13T07:09:08.456Z,97800.00
2022-10-13T07:11:35.953Z,97803.00
2022-10-13T07:14:02.980Z,97825.00
2022-10-13T07:16:30.261Z,97800.00
2022-10-13T07:18:57.105Z,97792.00
2022-10-13T07:21:23.981Z,97807.00
2022-10-13T07:23:50.808Z,97804.00
2022-10-13T07:26:18.191Z,97810.00
2022-10-13T07:28:45.355Z,97813.00
2022-10-13T07:31:19.432Z,97815.00
2022-10-13T07:33:49.563Z,97813.00
2022-10-13T07:36:17.494Z,97840.00
2022-10-13T07:38:44.833Z,97825.00
2022-10-13T07:41:13.504Z,97830.00
2022-10-13T07:43:40.757Z,97815.00
2022-10-13T07:46:07.969Z,97816.00
2022-10-13T07:48:35.622Z,97815.00
2022-10-13T07:51:08.410Z,97830.00
2022-10-13T07:53:35.601Z,97817.00
2022-10-13T07:56:06.250Z,97826.00
2022-10-13T07:58:36.533Z,97834.00
2022-10-13T08:01:04.526Z,97817.00
2022-10-13T08:03:32.831Z,97825.00
2022-10-13T08:06:02.267Z,97820.00
2022-10-13T08:08:30.030Z,97803.00
2022-10-13T08:11:06.672Z,97809.00
2022-10-13T08:13:35.601Z,97805.00
2022-10-13T08:16:13.061Z,97807.00
2022-10-13T08:18:39.989Z,97811.00
2022-10-13T08:21:53.162Z,97801.00
2022-10-13T08:24:00.526Z,97789.00
2022-10-13T08:26:29.365Z,97796.00
2022-10-13T08:29:20.602Z,97804.00
2022-10-13T08:31:44.162Z,97808.00
2022-10-13T08:34:11.888Z,97803.00
2022-10-13T08:36:39.726Z,97801.00
2022-10-13T08:39:07.092Z,97797.00
2022-10-13T08:41:43.879Z,97794.00
2022-10-13T08:47:40.165Z,97787.00
2022-10-13T08:50:18.619Z,97779.00
2022-10-13T08:52:53.526Z,97770.00
2022-10-13T08:55:45.345Z,97783.00
2022-10-13T08:58:27.012Z,97793.00
2022-10-13T09:01:09.136Z,97795.00
2022-10-13T09:04:08.179Z,97794.00
2022-10-13T09:06:46.946Z,97782.00
2022-10-13T09:09:16.484Z,97781.00
2022-10-13T09:11:50.985Z,97787.00
2022-10-13T09:14:32.598Z,97794.00
2022-10-13T09:17:26.740Z,97783.00
2022-10-13T09:20:05.456Z,97794.00
2022-10-13T09:22:37.246Z,97789.00
2022-10-13T09:25:07.226Z,97783.00
2022-10-13T09:28:00.094Z,97793.00
2022-10-13T09:30:38.854Z,97777.00
2022-10-13T09:33:09.122Z,97788.00
2022-10-13T09:36:00.318Z,97779.00
2022-10-13T09:38:28.746Z,97786.00
2022-10-13T09:41:10.023Z,97780.00
2022-10-13T09:43:59.383Z,97771.00
2022-10-13T09:46:37.823Z,97759.00
2022-10-13T09:49:34.681Z,97751.00
2022-10-13T09:52:18.702Z,97777.00
2022-10-13T09:54:58.567Z,97770.00
2022-10-13T09:57:48.148Z,97767.00
2022-10-13T10:00:27.851Z,97765.00
2022-10-13T10:03:19.151Z,97760.00
2022-10-13T10:05:55.994Z,97759.00
2022-10-13T10:09:02.644Z,97746.00
2022-10-13T10:11:47.026Z,97757.00
2022-10-13T10:14:22.100Z,97755.00
2022-10-13T10:17:26.471Z,97766.00
2022-10-13T10:20:49.176Z,97759.00
2022-10-13T10:23:51.238Z,97760.00
2022-10-13T10:26:43.919Z,97759.00
2022-10-13T10:29:27.143Z,97749.00
2022-10-13T10:32:38.513Z,97756.00
2022-10-13T10:35:44.222Z,97743.00
2022-10-13T10:38:13.997Z,97745.00
2022-10-13T10:41:17.022Z,97755.00
2022-10-13T10:44:17.513Z,97753.00
2022-10-13T10:46:50.610Z,97749.00
2022-10-13T10:49:28.862Z,97743.00
2022-10-13T10:51:56.759Z,97741.00
2022-10-13T10:54:45.070Z,97736.00
2022-10-13T10:57:22.451Z,97735.00
2022-10-13T11:00:15.117Z,97739.00
2022-10-13T11:03:18.029Z,97728.00
2022-10-13T11:06:01.270Z,97713.00
2022-10-13T11:08:46.755Z,97720.00
2022-10-13T11:11:26.617Z,97713.00
2022-10-13T11:14:07.663Z,97699.00
2022-10-13T11:16:40.738Z,97706.00
2022-10-13T11:19:37.530Z,97685.00
2022-10-13T11:22:04.290Z,97694.00
2022-10-13T11:24:38.735Z,97692.00
2022-10-13T11:27:11.392Z,97699.00
2022-10-13T11:29:45.047Z,97679.00
2022-10-13T11:32:41.829Z,97679.00
2022-10-13T11:35:12.392Z,97674.00
2022-10-13T11:38:17.733Z,97670.00
2022-10-13T11:41:20.912Z,97674.00
2022-10-13T11:44:08.292Z,97663.00
2022-10-13T11:47:12.130Z,97655.00
2022-10-13T11:50:16.653Z,97668.00
2022-10-13T11:53:02.093Z,97666.00
2022-10-13T11:55:56.009Z,97656.00
2022-10-13T11:58:31.754Z,97664.00
2022-10-13T12:01:11.813Z,97659.00
2022-10-13T12:03:43.315Z,97656.00
2022-10-13T12:06:33.600Z,97667.00
2022-10-13T12:09:16.498Z,97656.00
2022-10-13T12:11:45.243Z,97664.00
2022-10-13T12:14:27.357Z,97657.00
2022-10-13T12:19:32.138Z,97656.00
2022-10-13T12:22:01.592Z,97650.00
2022-10-13T12:24:30.778Z,97658.00
2022-10-13T12:26:58.738Z,97646.00
2022-10-13T12:29:30.235Z,97645.00
2022-10-13T12:32:00.912Z,97649.00
2022-10-13T12:34:36.262Z,97634.00
2022-10-13T12:37:21.591Z,97635.00
2022-10-13T12:39:49.284Z,97631.00
2022-10-13T12:42:17.643Z,97636.00
2022-10-13T12:44:45.652Z,97640.00
2022-10-13T12:47:39.264Z,97629.00
2022-10-13T12:50:25.083Z,97634.00
2022-10-13T12:53:07.801Z,97645.00
2022-10-13T12:55:45.511Z,97643.00
2022-10-13T12:58:24.424Z,97635.00
2022-10-13T13:01:08.163Z,97642.00
2022-10-13T13:03:37.760Z,97628.00
2022-10-13T13:06:25.848Z,97643.00
2022-10-13T13:09:24.393Z,97643.00
2022-10-13T13:12:10.733Z,97649.00
2022-10-13T13:14:47.307Z,97644.00
2022-10-13T13:20:31.623Z,97645.00
2022-10-13T13:22:59.593Z,97650.00
2022-10-13T13:25:27.341Z,97650.00
2022-10-13T13:27:54.456Z,97657.00
2022-10-13T13:30:23.740Z,97645.00
2022-10-13T13:32:51.998Z,97649.00
2022-10-13T13:35:19.173Z,97644.00
2022-10-13T13:37:50.843Z,97637.00
2022-10-13T13:40:24.934Z,97632.00
2022-10-13T13:42:52.301Z,97641.00
2022-10-13T13:45:23.875Z,97630.00
2022-10-13T13:47:51.583Z,97637.00
2022-10-13T13:50:26.509Z,97634.00
2022-10-13T13:52:57.298Z,97626.00
2022-10-13T13:55:25.037Z,97633.00
2022-10-13T13:57:52.236Z,97627.00
2022-10-13T14:00:21.107Z,97619.00
2022-10-13T14:02:55.782Z,97618.00
2022-10-13T14:05:23.554Z,97627.00
2022-10-13T14:07:57.811Z,97614.00
2022-10-13T14:10:26.432Z,97621.00
2022-10-13T14:12:53.235Z,97621.00
2022-10-13T14:15:21.045Z,97614.00
2022-10-13T14:17:48.579Z,97612.00
2022-10-13T14:20:15.543Z,97607.00
2022-10-13T14:22:44.390Z,97618.00
2022-10-13T14:25:11.967Z,97599.00
2022-10-13T14:27:38.827Z,97583.00
2022-10-13T14:30:09.406Z,97595.00
2022-10-13T14:32:39.151Z,97593.00
2022-10-13T14:35:07.141Z,97592.00
2022-10-13T14:37:34.689Z,97596.00
2022-10-13T14:40:01.876Z,97603.00
2022-10-13T14:42:29.461Z,97594.00
2022-10-13T14:44:56.294Z,97590.00
2022-10-13T14:47:23.276Z,97600.00
2022-10-13T14:49:50.246Z,97592.00
2022-10-13T14:52:17.127Z,97580.00
2022-10-13T14:54:45.181Z,97596.00
2022-10-13T14:57:16.134Z,97576.00
2022-10-13T14:59:43.691Z,97588.00
2022-10-13T15:02:14.056Z,97585.00
2022-10-13T15:04:52.021Z,97585.00
2022-10-13T15:07:19.373Z,97584.00
2022-10-13T15:09:52.923Z,97593.00
2022-10-13T15:12:31.594Z,97570.00
2022-10-13T15:14:58.439Z,97578.00
2022-10-13T15:17:25.492Z,97590.00
2022-10-13T15:19:52.303Z,97585.00
2022-10-13T15:22:19.566Z,97586.00
2022-10-13T15:24:46.574Z,97583.00
2022-10-13T15:27:13.626Z,97572.00
2022-10-13T15:29:40.644Z,97563.00
2022-10-13T15:32:13.432Z,97581.00
2022-10-13T15:34:41.380Z,97569.00
2022-10-13T15:37:08.301Z,97566.00
2022-10-13T15:39:35.144Z,97579.00
2022-10-13T15:42:02.512Z,97578.00
2022-10-13T15:44:51.098Z,97570.00
2022-10-13T15:47:18.543Z,97580.00
2022-10-13T15:49:45.367Z,97586.00
2022-10-13T15:52:12.362Z,97575.00
2022-10-13T15:54:39.224Z,97570.00
2022-10-13T15:57:06.115Z,97570.00
2022-10-13T15:59:33.966Z,97588.00
2022-10-13T16:02:00.805Z,97576.00
2022-10-13T16:04:27.616Z,97571.00
2022-10-13T16:06:54.531Z,97559.00
2022-10-13T16:09:21.342Z,97572.00
2022-10-13T16:11:48.293Z,97569.00
2022-10-13T16:14:15.125Z,97574.00
2022-10-13T16:16:42.018Z,97565.00
2022-10-13T16:19:08.892Z,97570.00
2022-10-13T16:21:35.815Z,97558.00
2022-10-13T16:24:05.371Z,97559.00
2022-10-13T16:26:32.264Z,97562.00
2022-10-13T16:28:59.348Z,97570.00
2022-10-13T16:31:26.525Z,97570.00
2022-10-13T16:33:54.139Z,97561.00
2022-10-13T16:36:21.019Z,97551.00
2022-10-13T16:38:52.786Z,97567.00
2022-10-13T16:41:19.708Z,97563.00
2022-10-13T16:43:48.175Z,97560.00
2022-10-13T16:46:18.907Z,97567.00
2022-10-13T16:48:46.723Z,97553.00
2022-10-13T16:51:24.048Z,97547.00
2022-10-13T16:53:54.306Z,97556.00
2022-10-13T16:56:22.982Z,97560.00
2022-10-13T16:58:56.116Z,97557.00
2022-10-13T17:01:24.178Z,97554.00
2022-10-13T17:03:52.162Z,97556.00
2022-10-13T17:06:22.341Z,97559.00
2022-10-13T17:08:56.981Z,97560.00
2022-10-13T17:11:30.615Z,97567.00
2022-10-13T17:13:59.527Z,97565.00
2022-10-13T17:16:31.231Z,97562.00
2022-10-13T17:18:58.184Z,97555.00
2022-10-13T17:21:33.366Z,97561.00
2022-10-13T17:24:00.314Z,97546.00
2022-10-13T17:26:27.220Z,97550.00
2022-10-13T17:28:54.709Z,97554.00
2022-10-13T17:31:23.536Z,97558.00
2022-10-13T17:33:51.310Z,97530.00
2022-10-13T17:36:27.952Z,97551.00
2022-10-13T17:38:56.728Z,97547.00
2022-10-13T17:41:24.676Z,97549.00
2022-10-13T17:43:52.554Z,97562.00
2022-10-13T17:46:38.262Z,97560.00
2022-10-13T17:49:09.768Z,97556.00
2022-10-13T17:51:36.702Z,97545.00
2022-10-13T17:54:04.148Z,97552.00
2022-10-13T17:56:31.928Z,97547.00
2022-10-13T17:59:01.732Z,97538.00
2022-10-13T18:01:32.662Z,97547.00
2022-10-13T18:04:04.468Z,97547.00
2022-10-13T18:06:43.655Z,97552.00
2022-10-13T18:09:19.360Z,97545.00
2022-10-13T18:11:50.930Z,97553.00
2022-10-13T18:14:24.417Z,97553.00
2022-10-13T18:16:52.912Z,97538.00
2022-10-13T18:19:21.329Z,97545.00
2022-10-13T18:21:48.844Z,97550.00
2022-10-13T18:24:15.813Z,97553.00
2022-10-13T18:26:42.672Z,97531.00
2022-10-13T18:29:11.421Z,97550.00
2022-10-13T18:31:41.158Z,97559.00
2022-10-13T18:34:12.597Z,97554.00
2022-10-13T18:36:55.731Z,97563.00
2022-10-13T18:39:27.806Z,97558.00
2022-10-13T18:41:57.520Z,97550.00
2022-10-13T18:44:34.244Z,97561.00
2022-10-13T18:47:01.246Z,97545.00
2022-10-13T18:49:30.932Z,97553.00
2022-10-13T18:52:01.758Z,97568.00
2022-10-13T18:54:30.097Z,97557.00
2022-10-13T18:56:57.183Z,97552.00
2022-10-13T18:59:24.415Z,97547.00
2022-10-13T19:01:51.326Z,97549.00
2022-10-13T19:04:18.294Z,97555.00
2022-10-13T19:06:46.266Z,97549.00
2022-10-13T19:09:17.183Z,97553.00
2022-10-13T19:11:44.138Z,97552.00
2022-10-13T19:14:14.207Z,97554.00
2022-10-13T19:16:43.491Z,97555.00
2022-10-13T19:19:11.534Z,97543.00
2022-10-13T19:21:39.828Z,97555.00
2022-10-13T19:24:09.733Z,97560.00
2022-10-13T19:26:37.816Z,97545.00
2022-10-13T19:29:12.517Z,97533.00
2022-10-13T19:31:41.467Z,97541.00
2022-10-13T19:34:10.691Z,97551.00
2022-10-13T19:36:43.179Z,97527.00
2022-10-13T19:39:18.525Z,97533.00
2022-10-13T19:41:47.277Z,97556.00
2022-10-13T19:44:16.542Z,97552.00
2022-10-13T19:46:45.634Z,97568.00
2022-10-13T19:49:16.205Z,97559.00
2022-10-13T19:51:49.063Z,97561.00
2022-10-13T19:54:18.029Z,97551.00
2022-10-13T19:56:47.702Z,97567.00
2022-10-13T19:59:17.341Z,97543.00
2022-10-13T20:01:44.228Z,97563.00
2022-10-13T20:04:15.806Z,97553.00
2022-10-13T20:06:43.695Z,97552.00
2022-10-13T20:09:10.623Z,97558.00
2022-10-13T20:11:37.818Z,97559.00
2022-10-13T20:14:04.782Z,97565.00
2022-10-13T20:16:31.923Z,97560.00
2022-10-13T20:19:00.933Z,97568.00
2022-10-13T20:21:29.525Z,97573.00
2022-10-13T20:23:57.807Z,97565.00
2022-10-13T20:26:25.948Z,97577.00
2022-10-13T20:28:54.700Z,97584.00
2022-10-13T20:31:23.187Z,97576.00
2022-10-13T20:33:58.425Z,97575.00
2022-10-13T20:36:36.025Z,97568.00
2022-10-13T20:39:12.018Z,97575.00
2022-10-13T20:41:42.837Z,97572.00
2022-10-13T20:44:09.968Z,97569.00
2022-10-13T20:46:37.292Z,97568.00
2022-10-13T20:49:11.579Z,97568.00
2022-10-13T20:51:41.894Z,97558.00
2022-10-13T20:54:11.215Z,97568.00
2022-10-13T20:56:38.223Z,97569.00
2022-10-13T20:59:12.057Z,97571.00
2022-10-13T21:01:39.147Z,97558.00
2022-10-13T21:04:06.484Z,97564.00
2022-10-13T21:06:34.512Z,97560.00
2022-10-13T21:09:01.771Z,97560.00
2022-10-13T21:11:28.740Z,97567.00
2022-10-13T21:13:55.624Z,97572.00
2022-10-13T21:16:29.495Z,97567.00
2022-10-13T21:18:57.663Z,97570.00
2022-10-13T21:21:31.083Z,97564.00
2022-10-13T21:24:05.081Z,97577.00
2022-10-13T21:26:33.814Z,97566.00
2022-10-13T21:29:02.507Z,97575.00
2022-10-13T21:31:30.538Z,97574.00
2022-10-13T21:33:57.771Z,97570.00
2022-10-13T21:36:29.425Z,97568.00
2022-10-13T21:39:05.208Z,97569.00
2022-10-13T21:41:33.158Z,97580.00
2022-10-13T21:44:00.151Z,97566.00
2022-10-13T21:46:33.623Z,97570.00
2022-10-13T21:49:04.765Z,97580.00
2022-10-13T21:51:37.819Z,97577.00
2022-10-13T21:54:10.721Z,97573.00
2022-10-13T21:56:39.411Z,97581.00
2022-10-13T21:59:07.507Z,97569.00
2022-10-13T22:01:34.769Z,97568.00
2022-10-13T22:04:11.451Z,97567.00
2022-10-13T22:06:38.452Z,97581.00
2022-10-13T22:09:06.475Z,97572.00
2022-10-13T22:11:36.002Z,97563.00
2022-10-13T22:14:10.871Z,97577.00
2022-10-13T22:16:46.388Z,97566.00
2022-10-13T22:19:15.881Z,97562.00
2022-10-13T22:21:48.132Z,97566.00
2022-10-13T22:24:19.607Z,97562.00
2022-10-13T22:26:49.203Z,97566.00
2022-10-13T22:29:20.131Z,97574.00
2022-10-13T22:31:47.638Z,97562.00
2022-10-13T22:34:16.279Z,97571.00
2022-10-13T22:36:44.954Z,97556.00
2022-10-13T22:39:12.779Z,97557.00
2022-10-13T22:41:39.989Z,97569.00
2022-10-13T22:44:06.915Z,97574.00
2022-10-13T22:46:37.887Z,97567.00
2022-10-13T22:49:06.686Z,97561.00
2022-10-13T22:51:36.426Z,97570.00
2022-10-13T22:54:04.586Z,97556.00
2022-10-13T22:56:34.373Z,97571.00
2022-10-13T22:59:08.009Z,97569.00
2022-10-13T23:01:36.072Z,97558.00
2022-10-13T23:04:03.540Z,97553.00
2022-10-13T23:06:33.659Z,97554.00
2022-10-13T23:09:06.447Z,97549.00
2022-10-13T23:11:35.284Z,97557.00
2022-10-13T23:14:05.922Z,97554.00
2022-10-13T23:16:33.483Z,97560.00
2022-10-13T23:19:00.290Z,97556.00
2022-10-13T23:21:29.582Z,97555.00
2022-10-13T23:24:05.915Z,97563.00
2022-10-13T23:26:35.007Z,97544.00
2022-10-13T23:29:03.756Z,97552.00
2022-10-13T23:31:31.058Z,97545.00
2022-10-13T23:33:58.666Z,97556.00
2022-10-13T23:36:29.390Z,97545.00
2022-10-13T23:39:03.882Z,97552.00
2022-10-13T23:41:31.478Z,97553.00
2022-10-13T23:43:58.459Z,97539.00
2022-10-13T23:46:25.920Z,97530.00
2022-10-13T23:48:52.935Z,97540.00
2022-10-13T23:51:23.623Z,97536.00
2022-10-13T23:53:51.512Z,97537.00
2022-10-13T23:56:19.352Z,97532.00
2022-10-13T23:58:46.413Z,97527.00
